Time;durP1;ratioP1;P1;durP2;ratioP2;P2;SDS_P1;SDS_P2;PMS_P1;PMS_P2;Temp;Humidity;BMP_temperature;BMP_pressure;BME280_temperature;BME280_humidity;BME280_pressure;Samples;Min_cycle;Max_cycle;Signal;HPM_P1;HPM_P2
2022/05/31 00:01:15;;;;;;;;;4.33;4.00;;;;;16.30;40.83;100567.00;5034308;28;45630;-63
2022/05/31 00:03:40;;;;;;;;;3.33;3.00;;;;;16.25;41.14;100574.56;5025851;27;46857;-62
2022/05/31 00:06:06;;;;;;;;;4.00;4.00;;;;;16.22;40.88;100574.81;5017188;27;45482;-63
2022/05/31 00:08:33;;;;;;;;;4.00;2.33;;;;;16.17;40.94;100577.03;5026590;27;45786;-62
2022/05/31 00:11:00;;;;;;;;;5.00;4.00;;;;;16.11;40.87;100572.13;5033599;27;45593;-62
2022/05/31 00:13:27;;;;;;;;;7.33;3.33;;;;;16.08;41.21;100577.75;5033338;28;47542;-61
2022/05/31 00:15:53;;;;;;;;;3.00;3.00;;;;;16.13;41.33;100580.91;5033609;27;45352;-63
2022/05/31 00:18:19;;;;;;;;;3.00;3.00;;;;;16.06;41.85;100574.31;5033909;28;45811;-63
2022/05/31 00:20:44;;;;;;;;;2.33;2.33;;;;;16.01;41.94;100576.50;5036385;27;45452;-63
2022/05/31 00:23:11;;;;;;;;;4.00;2.67;;;;;15.97;41.91;100581.25;5033722;27;45899;-64
2022/05/31 00:25:36;;;;;;;;;4.33;2.33;;;;;16.01;41.97;100576.50;5033881;27;45433;-63
2022/05/31 00:28:02;;;;;;;;;2.67;2.67;;;;;16.03;42.14;100574.56;5026475;27;45348;-65
2022/05/31 00:30:28;;;;;;;;;1.33;1.33;;;;;15.95;41.94;100564.44;5032057;27;45166;-62
2022/05/31 00:32:54;;;;;;;;;4.33;3.00;;;;;15.94;41.71;100573.47;5026391;27;45460;-64
2022/05/31 00:35:28;;;;;;;;;4.33;3.00;;;;;15.90;42.04;100561.28;5129051;27;45357;-63
2022/05/31 00:37:54;;;;;;;;;2.00;2.00;;;;;15.94;41.89;100581.50;5066743;27;45304;-63
2022/05/31 00:40:23;;;;;;;;;3.67;3.00;;;;;15.86;41.93;100573.19;5034868;28;45269;-65
2022/05/31 00:42:58;;;;;;;;;2.33;2.33;;;;;15.96;42.19;100576.03;5032554;27;46217;-63
2022/05/31 00:45:37;;;;;;;;;4.00;4.00;;;;;15.95;41.97;100561.75;5033625;27;45325;-63
2022/05/31 00:48:05;;;;;;;;;2.00;2.00;;;;;15.92;42.04;100562.88;5036602;27;45458;-62
2022/05/31 00:50:42;;;;;;;;;2.00;2.00;;;;;15.96;41.99;100565.28;5034448;27;45357;-65
2022/05/31 00:53:14;;;;;;;;;3.00;3.00;;;;;15.95;41.87;100563.59;5034597;27;45458;-62
2022/05/31 00:55:50;;;;;;;;;3.00;3.00;;;;;15.96;41.76;100558.09;5030909;27;45292;-62
2022/05/31 00:58:29;;;;;;;;;4.00;4.00;;;;;15.98;42.43;100560.66;5014506;28;45329;-65
2022/05/31 01:00:59;;;;;;;;;3.33;2.67;;;;;15.92;42.30;100565.53;5016419;27;45606;-63
2022/05/31 01:03:25;;;;;;;;;2.33;2.33;;;;;15.89;42.50;100560.44;5049486;28;46285;-62
2022/05/31 01:05:51;;;;;;;;;3.00;3.00;;;;;15.88;42.50;100561.38;5033403;27;45461;-63
2022/05/31 01:08:16;;;;;;;;;4.33;3.00;;;;;15.81;42.40;100554.81;5026849;27;45417;-62
2022/05/31 01:10:43;;;;;;;;;4.00;2.00;;;;;15.90;42.61;100567.50;5014666;28;45276;-65
2022/05/31 01:13:11;;;;;;;;;4.00;3.00;;;;;15.91;42.68;100566.53;5021026;27;46338;-62
2022/05/31 01:15:37;;;;;;;;;3.00;3.00;;;;;15.90;42.55;100558.59;5032843;28;45743;-63
2022/05/31 01:18:03;;;;;;;;;4.00;2.00;;;;;15.87;42.43;100556.97;5028662;27;45505;-62
2022/05/31 01:20:29;;;;;;;;;2.00;2.00;;;;;15.90;42.55;100564.81;5005531;27;45252;-64
2022/05/31 01:22:59;;;;;;;;;6.67;4.00;;;;;15.84;42.81;100553.69;5012668;27;47476;-63
2022/05/31 01:25:50;;;;;;;;;4.00;4.00;;;;;15.75;43.26;100566.00;5019801;27;45346;-63
2022/05/31 01:28:51;;;;;;;;;4.67;3.00;;;;;15.66;43.46;100558.69;5021206;27;45365;-62
2022/05/31 01:32:11;;;;;;;;;4.00;4.00;;;;;15.66;43.31;100565.88;5034033;28;45353;-62
2022/05/31 01:34:42;;;;;;;;;3.00;3.00;;;;;15.67;43.31;100563.06;5007032;27;45608;-61
2022/05/31 01:37:08;;;;;;;;;4.00;3.00;;;;;15.66;43.06;100558.69;5028020;27;45363;-62
2022/05/31 01:39:45;;;;;;;;;4.00;3.00;;;;;15.69;43.25;100560.25;5036282;28;45320;-62
2022/05/31 01:42:32;;;;;;;;;2.67;2.67;;;;;15.71;43.20;100569.91;5025069;27;45254;-63
2022/05/31 01:45:33;;;;;;;;;6.33;3.00;;;;;15.72;43.21;100560.88;5078796;27;45426;-64
2022/05/31 01:48:02;;;;;;;;;6.33;3.67;;;;;15.76;42.91;100565.03;5017436;27;45467;-63
2022/05/31 01:50:28;;;;;;;;;4.00;4.00;;;;;15.72;43.40;100566.25;5013458;27;45406;-63
2022/05/31 01:52:54;;;;;;;;;4.00;3.00;;;;;15.73;43.01;100559.91;5013769;27;45612;-63
2022/05/31 01:55:21;;;;;;;;;4.33;4.33;;;;;15.73;43.14;100559.91;5020911;27;46107;-62
2022/05/31 01:57:57;;;;;;;;;4.00;4.00;;;;;15.70;43.59;100568.19;5035266;28;45442;-65
2022/05/31 02:00:23;;;;;;;;;8.33;7.00;;;;;15.68;43.57;100562.09;5031696;27;45399;-62
2022/05/31 02:02:51;;;;;;;;;4.00;3.00;;;;;15.67;43.74;100563.06;5033922;28;45658;-63
2022/05/31 02:05:18;;;;;;;;;7.67;4.00;;;;;15.64;43.65;100568.69;5031648;27;46074;-64
2022/05/31 02:07:56;;;;;;;;;6.33;3.00;;;;;15.62;44.02;100565.25;5029842;27;45500;-63
2022/05/31 02:10:23;;;;;;;;;4.00;4.00;;;;;15.58;44.17;100566.41;5012418;28;45433;-63
2022/05/31 02:12:53;;;;;;;;;6.33;4.33;;;;;15.60;44.63;100573.41;5024759;27;45463;-63
2022/05/31 02:15:19;;;;;;;;;3.00;3.00;;;;;15.60;44.61;100569.88;5013073;27;45474;-64
2022/05/31 02:17:45;;;;;;;;;4.33;4.33;;;;;15.63;44.15;100577.69;5027428;27;45421;-63
2022/05/31 02:20:11;;;;;;;;;3.00;3.00;;;;;15.67;43.95;100573.78;5023322;27;45320;-62
2022/05/31 02:22:37;;;;;;;;;3.00;0.00;;;;;15.70;44.33;100570.88;5029529;28;45519;-64
2022/05/31 02:25:02;;;;;;;;;3.67;2.33;;;;;15.70;44.17;100570.88;5013228;27;45251;-63
2022/05/31 02:27:29;;;;;;;;;5.33;3.00;;;;;15.67;44.39;100571.13;5028542;27;45779;-62
2022/05/31 02:29:55;;;;;;;;;3.33;3.33;;;;;15.70;44.31;100568.19;5017095;27;45388;-63
2022/05/31 02:32:21;;;;;;;;;4.00;4.00;;;;;15.68;44.35;100566.59;5045265;27;45542;-62
2022/05/31 02:34:49;;;;;;;;;4.00;4.00;;;;;15.67;44.35;100565.75;5089281;27;45356;-62
2022/05/31 02:37:16;;;;;;;;;3.00;3.00;;;;;15.67;43.87;100563.06;5032861;27;45416;-63
2022/05/31 02:39:42;;;;;;;;;5.33;4.67;;;;;15.65;43.92;100569.53;5018840;27;45528;-62
2022/05/31 02:42:07;;;;;;;;;5.00;5.00;;;;;15.67;43.79;100573.78;5013416;28;45556;-62
2022/05/31 02:44:33;;;;;;;;;3.67;3.33;;;;;15.67;43.58;100576.47;5017245;27;46177;-63
2022/05/31 02:46:59;;;;;;;;;4.00;3.00;;;;;15.67;43.82;100578.31;5011822;28;45299;-62
2022/05/31 02:49:25;;;;;;;;;6.67;3.33;;;;;15.64;43.97;100571.38;5040461;27;45711;-63
2022/05/31 02:51:50;;;;;;;;;4.33;3.00;;;;;15.66;44.06;100572.09;5036186;28;45372;-62
2022/05/31 02:54:18;;;;;;;;;8.00;7.00;;;;;15.59;43.98;100569.00;5035282;27;46838;-63
2022/05/31 02:56:46;;;;;;;;;4.00;4.00;;;;;15.59;44.58;100570.81;5029989;27;45499;-63
2022/05/31 02:59:11;;;;;;;;;4.33;4.33;;;;;15.59;44.43;100560.97;5018670;28;45470;-63
2022/05/31 03:01:39;;;;;;;;;5.00;4.00;;;;;15.59;43.96;100549.38;5039948;27;46289;-63
2022/05/31 03:04:05;;;;;;;;;3.00;3.00;;;;;15.59;44.47;100552.94;5052341;28;45376;-61
2022/05/31 03:06:31;;;;;;;;;3.00;3.00;;;;;15.60;44.31;100557.31;5029141;27;45931;-62
2022/05/31 03:08:58;;;;;;;;;5.00;5.00;;;;;15.57;44.45;100549.50;5032101;27;45872;-62
2022/05/31 03:11:26;;;;;;;;;4.00;3.00;;;;;15.50;44.53;100567.03;5034835;27;45487;-63
2022/05/31 03:13:58;;;;;;;;;6.00;4.33;;;;;15.35;44.99;100569.03;5035262;28;46468;-63
2022/05/31 03:16:24;;;;;;;;;3.00;3.00;;;;;15.40;44.69;100586.59;5029874;27;45435;-63
2022/05/31 03:19:01;;;;;;;;;4.00;2.00;;;;;15.45;44.57;100576.38;5015707;28;45416;-63
2022/05/31 03:21:36;;;;;;;;;3.00;3.00;;;;;15.50;44.35;100579.59;5015997;28;45351;-63
2022/05/31 03:24:12;;;;;;;;;3.50;2.50;;;;;15.49;44.68;100575.16;5038429;27;46281;-63
2022/05/31 03:26:40;;;;;;;;;3.67;3.00;;;;;15.49;44.95;100569.81;5033597;28;45346;-62
2022/05/31 03:29:06;;;;;;;;;4.67;4.67;;;;;15.48;44.21;100573.47;5018949;27;45440;-62
2022/05/31 03:31:32;;;;;;;;;3.67;3.00;;;;;15.43;44.16;100551.53;5016103;27;45251;-64
2022/05/31 03:33:58;;;;;;;;;3.00;3.00;;;;;15.44;44.69;100563.97;5086406;27;46652;-62
2022/05/31 03:36:24;;;;;;;;;3.00;3.00;;;;;15.45;44.65;100558.47;5133428;27;45940;-62
2022/05/31 03:38:49;;;;;;;;;3.00;3.00;;;;;15.46;44.44;100553.97;5016620;28;45385;-62
2022/05/31 03:41:15;;;;;;;;;3.00;3.00;;;;;15.47;44.82;100563.72;5035421;28;45391;-63
2022/05/31 03:43:42;;;;;;;;;5.00;3.33;;;;;15.40;45.01;100557.13;5031781;27;45878;-62
2022/05/31 03:46:12;;;;;;;;;5.33;4.00;;;;;15.26;45.19;100556.34;5031537;27;45394;-64
2022/05/31 03:48:38;;;;;;;;;3.67;3.67;;;;;15.21;45.63;100565.69;5016040;27;45302;-62
2022/05/31 03:51:07;;;;;;;;;3.67;3.67;;;;;15.15;45.66;100575.06;5035877;28;45410;-62
2022/05/31 03:53:34;;;;;;;;;2.00;2.00;;;;;15.14;45.54;100573.38;5029834;27;47859;-63
2022/05/31 03:56:08;;;;;;;;;5.00;3.00;;;;;15.12;46.01;100569.94;5014849;27;45472;-62
2022/05/31 03:58:35;;;;;;;;;3.33;3.33;;;;;15.22;45.28;100570.94;5028418;27;45401;-62
2022/05/31 04:01:00;;;;;;;;;3.00;3.00;;;;;15.19;44.89;100571.19;5034235;27;45279;-63
2022/05/31 04:03:26;;;;;;;;;3.00;3.00;;;;;15.24;44.95;100573.53;5032887;27;46071;-61
2022/05/31 04:05:52;;;;;;;;;2.00;2.00;;;;;15.20;45.32;100558.63;5019391;27;45519;-63
2022/05/31 04:08:19;;;;;;;;;4.33;2.67;;;;;15.28;44.69;100566.97;5030599;27;45597;-61
2022/05/31 04:10:45;;;;;;;;;2.00;2.00;;;;;15.27;44.56;100560.75;5035245;28;45500;-63
2022/05/31 04:13:11;;;;;;;;;1.33;1.33;;;;;15.26;44.51;100564.41;5034761;27;45597;-63
2022/05/31 04:15:38;;;;;;;;;2.00;2.00;;;;;15.16;44.41;100558.03;5025284;28;45401;-62
2022/05/31 04:18:04;;;;;;;;;2.00;2.00;;;;;15.11;45.33;100570.91;5014711;27;45531;-63
2022/05/31 04:20:30;;;;;;;;;2.67;2.67;;;;;15.09;45.39;100562.13;5015366;27;45495;-62
2022/05/31 04:23:58;;;;;;;;;3.00;3.00;;;;;15.07;45.39;100569.41;5024301;28;46137;-63
2022/05/31 04:25:43;;;;;;;;;2.00;2.00;;;;;15.08;45.47;100560.41;5037109;27;45344;-64
2022/05/31 04:28:09;;;;;;;;;3.00;3.00;;;;;15.09;45.38;100561.25;5035199;27;45321;-63
2022/05/31 04:30:36;;;;;;;;;3.33;3.00;;;;;15.13;45.03;100563.63;5034288;27;45326;-63
2022/05/31 04:33:01;;;;;;;;;2.00;2.00;;;;;15.16;45.52;100562.53;5033277;27;46320;-63
2022/05/31 04:35:27;;;;;;;;;3.00;2.33;;;;;15.18;45.17;100564.13;5134817;27;45459;-65
2022/05/31 04:37:52;;;;;;;;;3.67;2.00;;;;;15.12;45.34;100567.28;5039907;27;45588;-63
2022/05/31 04:40:18;;;;;;;;;2.00;2.00;;;;;15.10;45.38;100563.81;5049265;27;45543;-61
2022/05/31 04:42:44;;;;;;;;;8.00;3.00;;;;;15.12;45.28;100564.59;5024866;27;46103;-62
2022/05/31 04:45:09;;;;;;;;;3.00;3.00;;;;;15.18;45.48;100566.78;5014934;28;45268;-63
2022/05/31 04:47:35;;;;;;;;;4.00;4.00;;;;;15.20;45.72;100570.19;5014437;27;45395;-62
2022/05/31 04:50:01;;;;;;;;;2.00;2.00;;;;;15.25;45.43;100573.41;5015098;28;45341;-63
2022/05/31 04:52:26;;;;;;;;;2.00;2.00;;;;;15.30;44.80;100573.03;5021897;27;45409;-62
2022/05/31 04:54:52;;;;;;;;;2.67;2.67;;;;;15.28;45.24;100567.81;5031917;27;45518;-62
2022/05/31 04:57:18;;;;;;;;;5.33;2.00;;;;;15.32;45.57;100580.00;5028337;27;45501;-61
2022/05/31 04:59:45;;;;;;;;;2.67;2.67;;;;;15.26;45.88;100556.34;5015645;27;45274;-63
2022/05/31 05:02:10;;;;;;;;;5.33;5.33;;;;;15.39;45.69;100576.88;5022905;27;45628;-65
2022/05/31 05:04:36;;;;;;;;;5.00;3.67;;;;;15.44;45.30;100575.53;5033774;28;45463;-63
2022/05/31 05:07:01;;;;;;;;;2.33;2.33;;;;;15.47;45.43;100574.44;5032316;27;45603;-61
2022/05/31 05:09:27;;;;;;;;;2.33;2.00;;;;;15.48;45.51;100578.81;5034596;28;45658;-63
2022/05/31 05:11:52;;;;;;;;;4.00;4.00;;;;;15.41;45.39;100577.59;5032149;27;45749;-64
2022/05/31 05:14:18;;;;;;;;;4.00;4.00;;;;;15.50;45.02;100582.25;5042902;27;45522;-64
2022/05/31 05:16:43;;;;;;;;;4.00;4.00;;;;;15.49;44.99;100580.53;5036084;27;45465;-64
2022/05/31 05:19:12;;;;;;;;;3.33;3.00;;;;;15.45;45.24;100584.41;5033998;28;45187;-63
2022/05/31 05:21:38;;;;;;;;;3.00;3.00;;;;;15.46;45.16;100595.03;5033995;27;45548;-64
2022/05/31 05:24:04;;;;;;;;;5.00;5.00;;;;;15.42;44.95;100596.25;5081895;27;45420;-64
2022/05/31 05:26:29;;;;;;;;;5.33;3.00;;;;;15.48;44.88;100600.25;5031387;27;45438;-64
2022/05/31 05:31:40;;;;;;;;;8.00;4.67;;;;;15.57;45.01;100591.53;5024354;27;45720;-63
2022/05/31 05:34:07;;;;;;;;;7.00;5.00;;;;;15.61;45.11;100593.88;5040636;27;45464;-63
2022/05/31 05:36:33;;;;;;;;;5.33;4.00;;;;;15.67;44.78;100599.75;5038369;27;45500;-65
2022/05/31 05:38:58;;;;;;;;;6.00;6.00;;;;;15.71;44.54;100593.16;5032867;27;45355;-63
2022/05/31 05:41:27;;;;;;;;;6.00;4.33;;;;;15.77;44.98;100598.94;5019510;27;47988;-64
2022/05/31 05:43:52;;;;;;;;;6.33;4.67;;;;;15.84;44.65;100597.47;5033491;27;45388;-64
2022/05/31 05:46:28;;;;;;;;;7.33;5.00;;;;;15.89;44.32;100597.13;5020645;28;45436;-63
2022/05/31 05:48:55;;;;;;;;;8.33;8.33;;;;;15.91;44.04;100597.84;5067349;27;45605;-64
2022/05/31 05:51:25;;;;;;;;;4.00;4.00;;;;;15.96;43.88;100605.53;5086696;27;45390;-62
2022/05/31 05:53:52;;;;;;;;;3.00;3.00;;;;;15.99;44.02;100603.44;5085936;27;45505;-65
2022/05/31 05:56:18;;;;;;;;;2.00;2.00;;;;;16.04;43.93;100597.75;5137787;27;45277;-66
2022/05/31 05:58:45;;;;;;;;;4.67;4.67;;;;;16.07;43.47;100603.72;5085675;27;45576;-64
2022/05/31 06:01:36;;;;;;;;;9.67;4.00;;;;;16.09;43.70;100606.28;5098619;27;46218;-64
2022/05/31 06:04:06;;;;;;;;;6.67;4.33;;;;;16.09;43.69;100612.50;5030130;28;45336;-64
2022/05/31 06:06:34;;;;;;;;;5.00;5.00;;;;;16.12;43.51;100620.28;5046327;28;45460;-63
2022/05/31 06:09:08;;;;;;;;;7.67;3.67;;;;;16.11;43.29;100618.59;5046505;27;45237;-62
2022/05/31 06:11:40;;;;;;;;;8.67;4.00;;;;;16.10;43.20;100610.66;5050042;28;46585;-62
2022/05/31 06:14:08;;;;;;;;;3.00;3.00;;;;;16.21;42.98;100608.00;5000471;28;45453;-65
2022/05/31 06:16:39;;;;;;;;;4.00;3.00;;;;;16.21;43.08;100608.00;5069853;27;45496;-64
2022/05/31 06:19:10;;;;;;;;;8.67;5.00;;;;;16.25;43.01;100617.50;5067881;27;45377;-64
2022/05/31 06:21:35;;;;;;;;;4.00;4.00;;;;;16.32;43.09;100610.69;5016755;28;45297;-63
2022/05/31 06:24:01;;;;;;;;;7.00;5.00;;;;;16.35;42.93;100613.09;5051458;28;45628;-57
2022/05/31 06:26:28;;;;;;;;;9.33;5.33;;;;;16.28;43.22;100603.84;4995824;27;45489;-55
2022/05/31 06:28:54;;;;;;;;;8.33;5.33;;;;;16.32;43.26;100618.72;4994106;28;45409;-58
2022/05/31 06:31:19;;;;;;;;;6.00;6.00;;;;;16.29;43.12;100613.63;5009096;27;47141;-57
2022/05/31 06:33:45;;;;;;;;;4.67;4.67;;;;;16.35;43.00;100623.84;5039072;27;45446;-53
2022/05/31 06:36:11;;;;;;;;;15.00;9.00;;;;;16.35;43.26;100631.03;5015598;27;45711;-54
2022/05/31 06:38:36;;;;;;;;;8.00;7.33;;;;;16.38;43.11;100620.91;5012154;27;45428;-59
2022/05/31 06:41:04;;;;;;;;;18.67;17.33;;;;;16.37;43.31;100627.25;5007070;28;45772;-56
2022/05/31 06:43:30;;;;;;;;;10.00;9.00;;;;;16.36;43.26;100625.56;4993238;28;45268;-53
2022/05/31 06:45:55;;;;;;;;;5.00;5.00;;;;;16.45;43.56;100623.97;4992812;27;45184;-62
2022/05/31 06:48:21;;;;;;;;;2.00;1.00;;;;;16.46;43.19;100620.31;4992820;27;45600;-62
2022/05/31 06:50:46;;;;;;;;;6.33;6.33;;;;;16.61;43.26;100623.59;4993070;28;45781;-65
2022/05/31 06:58:41;;;;;;;;;10.67;7.67;;;;;17.01;43.12;100613.16;4993499;28;45233;-63
2022/05/31 07:01:06;;;;;;;;;12.33;8.67;;;;;17.11;43.19;100622.19;4992829;28;46026;-64
2022/05/31 07:03:32;;;;;;;;;7.67;7.33;;;;;17.04;43.33;100613.75;4992471;27;45242;-63
2022/05/31 07:05:59;;;;;;;;;9.00;8.67;;;;;17.04;43.37;100613.75;4993199;28;45348;-65
2022/05/31 07:08:25;;;;;;;;;1.00;0.00;;;;;17.10;43.27;100625.84;4993852;28;45523;-63
2022/05/31 07:10:52;;;;;;;;;8.67;8.67;;;;;17.06;43.52;100619.03;4993083;28;46174;-62
2022/05/31 07:13:20;;;;;;;;;8.67;6.33;;;;;17.02;43.53;100626.47;4993028;28;45434;-65
2022/05/31 07:15:46;;;;;;;;;10.00;8.67;;;;;17.08;43.08;100623.28;4991745;28;45357;-63
2022/05/31 07:18:12;;;;;;;;;9.67;9.67;;;;;17.03;43.26;100617.41;5004753;27;46116;-62
2022/05/31 07:20:37;;;;;;;;;10.00;10.00;;;;;17.18;43.21;100633.25;5011069;27;46192;-64
2022/05/31 07:23:03;;;;;;;;;8.00;6.00;;;;;17.17;42.89;100618.13;5012492;28;45217;-63
2022/05/31 07:25:28;;;;;;;;;10.67;7.67;;;;;17.19;42.65;100625.09;5012578;27;45333;-64
2022/05/31 07:27:54;;;;;;;;;7.33;7.33;;;;;17.24;42.20;100628.25;5013098;27;45413;-62
2022/05/31 07:30:19;;;;;;;;;16.33;12.67;;;;;17.24;42.18;100632.75;5011996;28;45732;-65
2022/05/31 07:32:44;;;;;;;;;8.00;8.00;;;;;17.01;42.43;100597.91;5011719;27;45405;-62
2022/05/31 07:35:10;;;;;;;;;8.00;8.00;;;;;17.23;42.18;100631.06;5044879;27;45425;-64
2022/05/31 07:37:37;;;;;;;;;7.00;6.00;;;;;17.24;41.97;100638.13;5011115;28;45522;-62
2022/05/31 07:40:03;;;;;;;;;7.00;5.67;;;;;17.30;41.94;100630.41;5015726;28;46594;-63
2022/05/31 07:42:29;;;;;;;;;7.33;7.33;;;;;17.47;41.56;100639.75;5015561;28;45271;-64
2022/05/31 07:44:55;;;;;;;;;8.00;6.67;;;;;17.59;41.65;100630.66;5014941;28;45330;-63
2022/05/31 07:47:24;;;;;;;;;10.67;7.00;;;;;17.76;41.24;100626.56;5015574;28;45333;-62
2022/05/31 07:49:49;;;;;;;;;10.00;8.00;;;;;17.77;41.40;100635.47;5010468;27;47168;-63
2022/05/31 07:52:16;;;;;;;;;15.00;10.00;;;;;17.94;41.35;100635.72;4995445;28;45398;-64
2022/05/31 07:54:44;;;;;;;;;10.00;6.33;;;;;18.07;40.98;100632.84;4995928;28;45579;-64
2022/05/31 07:58:30;;;;;;;;;6.00;4.67;;;;;18.15;39.61;100633.03;4995659;28;45526;-63
2022/05/31 07:59:55;;;;;;;;;22.33;9.67;;;;;18.26;39.98;100630.25;5012317;28;45402;-63
2022/05/31 08:02:21;;;;;;;;;7.33;5.67;;;;;18.32;39.61;100628.84;5014894;28;45392;-63
2022/05/31 08:04:46;;;;;;;;;6.00;5.67;;;;;18.45;39.00;100637.56;5101191;27;45487;-64
2022/05/31 08:07:12;;;;;;;;;11.67;6.33;;;;;18.54;39.01;100633.22;4997536;27;45467;-66
2022/05/31 08:09:38;;;;;;;;;4.00;4.00;;;;;18.69;38.83;100625.63;4995950;28;46044;-63
2022/05/31 08:12:11;;;;;;;;;4.00;4.00;;;;;18.83;38.78;100623.41;4995376;27;45254;-64
2022/05/31 08:14:37;;;;;;;;;9.00;5.67;;;;;18.97;38.27;100629.38;4995596;28;45271;-64
2022/05/31 08:17:03;;;;;;;;;5.00;5.00;;;;;18.97;38.34;100626.69;4994179;28;45232;-62
2022/05/31 08:19:32;;;;;;;;;5.00;5.00;;;;;19.05;38.03;100621.47;4995385;28;45725;-65
2022/05/31 08:21:57;;;;;;;;;4.67;4.67;;;;;19.34;38.25;100633.13;4995630;28;45344;-63
2022/05/31 08:24:24;;;;;;;;;5.00;3.67;;;;;19.57;37.32;100622.09;4994665;27;45357;-63
2022/05/31 08:26:50;;;;;;;;;4.00;4.00;;;;;19.68;36.58;100632.72;5010736;28;45556;-63
2022/05/31 08:29:17;;;;;;;;;4.00;4.00;;;;;19.86;36.19;100620.19;4995075;28;45322;-64
2022/05/31 08:31:42;;;;;;;;;5.00;5.00;;;;;20.06;36.16;100620.16;4994705;27;45325;-64
2022/05/31 08:34:08;;;;;;;;;6.67;6.00;;;;;20.45;35.53;100615.50;5001843;27;45318;-62
2022/05/31 08:36:33;;;;;;;;;3.00;3.00;;;;;20.83;34.54;100590.09;5013913;28;45570;-63
2022/05/31 08:39:00;;;;;;;;;4.00;4.00;;;;;21.50;33.64;100621.25;5047170;28;48033;-63
2022/05/31 08:41:59;;;;;;;;;3.00;3.00;;;;;21.94;33.88;100616.69;5015315;28;45434;-63
2022/05/31 08:44:25;;;;;;;;;2.67;2.67;;;;;22.37;32.36;100617.66;5015570;28;45927;-63
2022/05/31 08:47:01;;;;;;;;;130.25;109.00;;;;;22.74;32.01;100609.16;5013960;28;45703;-64
2022/05/31 08:52:42;;;;;;;;;3.50;3.50;;;;;23.40;31.50;100619.19;4994920;28;45379;-65
2022/05/31 08:58:09;;;;;;;;;2.25;1.25;;;;;24.18;30.26;100620.53;4994757;28;45306;-64
2022/05/31 09:00:41;;;;;;;;;2.00;2.00;;;;;24.31;29.71;100605.41;4993454;28;46302;-64
2022/05/31 09:03:15;;;;;;;;;1.80;1.80;;;;;24.48;29.81;100617.09;4994765;28;45479;-64
2022/05/31 09:05:46;;;;;;;;;3.00;3.00;;;;;24.49;29.23;100602.47;4994492;27;45613;-63
2022/05/31 09:08:28;;;;;;;;;6.00;4.25;;;;;24.45;28.33;100619.28;4994978;28;45350;-63
2022/05/31 09:11:10;;;;;;;;;6.50;6.00;;;;;24.42;28.83;100618.63;5010818;27;45589;-66
2022/05/31 09:13:53;;;;;;;;;3.50;3.00;;;;;24.66;29.71;100609.53;4994115;27;45408;-66
2022/05/31 09:16:57;;;;;;;;;3.00;3.00;;;;;24.95;28.98;100618.91;4993141;28;45509;-63
2022/05/31 09:19:41;;;;;;;;;4.00;4.00;;;;;24.92;28.76;100601.06;4993325;27;45760;-64
2022/05/31 09:22:07;;;;;;;;;5.00;3.25;;;;;24.97;28.15;100612.25;4994267;27;45829;-66
2022/05/31 09:24:38;;;;;;;;;6.00;5.25;;;;;25.12;27.64;100612.34;4992976;27;45736;-69
2022/05/31 09:27:12;;;;;;;;;3.75;3.75;;;;;25.23;28.08;100622.81;4993014;28;45325;-67
2022/05/31 09:30:01;;;;;;;;;2.25;2.25;;;;;25.39;28.40;100605.56;4994417;28;45561;-65
2022/05/31 09:32:37;;;;;;;;;3.00;3.00;;;;;25.42;25.46;100609.78;4994186;28;46081;-63
2022/05/31 09:35:36;;;;;;;;;4.60;3.00;;;;;25.34;26.18;100610.69;5020575;27;45760;-65
2022/05/31 09:38:35;;;;;;;;;3.00;3.00;;;;;25.28;26.58;100609.53;5014040;27;45466;-63
2022/05/31 09:41:14;;;;;;;;;2.00;2.00;;;;;25.54;25.80;100608.34;5029020;27;45159;-64
2022/05/31 09:43:49;;;;;;;;;2.50;2.50;;;;;25.83;27.18;100613.88;5013727;28;45725;-65
2022/05/31 09:46:36;;;;;;;;;3.40;3.40;;;;;26.15;26.91;100607.25;5012272;28;45499;-62
2022/05/31 09:49:22;;;;;;;;;2.20;2.20;;;;;26.38;25.47;100611.81;5012898;28;45444;-67
2022/05/31 09:51:48;;;;;;;;;3.00;1.25;;;;;26.58;25.48;100603.91;5012777;28;45545;-66
2022/05/31 09:57:08;;;;;;;;;2.00;2.00;;;;;26.86;25.22;100598.59;4995694;27;45337;-63
2022/05/31 09:59:46;;;;;;;;;1.40;1.40;;;;;26.59;25.73;100594.69;4997298;28;45277;-62
2022/05/31 10:02:35;;;;;;;;;2.00;2.00;;;;;26.27;25.88;100604.91;4994335;27;45238;-62
2022/05/31 10:05:20;;;;;;;;;3.00;3.00;;;;;25.72;24.83;100600.69;4994094;28;46232;-66
2022/05/31 10:07:46;;;;;;;;;4.20;4.20;;;;;24.88;25.43;100607.91;4993779;28;45420;-64
2022/05/31 10:10:24;;;;;;;;;2.00;2.00;;;;;24.49;26.92;100607.91;4993835;28;45456;-68
2022/05/31 10:12:56;;;;;;;;;2.75;2.75;;;;;24.25;27.58;100613.38;5004072;27;45685;-65
2022/05/31 10:15:51;;;;;;;;;2.50;2.00;;;;;24.11;28.01;100602.22;5011793;28;46890;-66
2022/05/31 10:18:30;;;;;;;;;1.80;1.80;;;;;23.87;27.60;100613.13;5015819;28;45554;-63
2022/05/31 10:20:59;;;;;;;;;1.50;1.50;;;;;23.75;27.13;100612.63;5013417;28;45291;-64
2022/05/31 10:23:34;;;;;;;;;3.00;3.00;;;;;23.70;27.59;100606.84;5012379;28;45501;-64
2022/05/31 10:26:00;;;;;;;;;4.75;2.25;;;;;23.85;27.48;100623.31;5028194;28;46232;-65
2022/05/31 10:28:30;;;;;;;;;3.00;3.00;;;;;23.79;27.62;100610.41;5017850;27;45714;-63
2022/05/31 10:31:04;;;;;;;;;1.50;1.50;;;;;23.67;27.99;100606.31;4993772;28;45396;-65
2022/05/31 10:33:31;;;;;;;;;2.25;2.25;;;;;23.60;27.82;100595.31;5011711;27;45521;-65
2022/05/31 10:36:08;;;;;;;;;3.00;3.00;;;;;23.48;26.96;100592.06;5115956;27;47031;-64
2022/05/31 10:38:35;;;;;;;;;3.25;3.25;;;;;23.59;25.85;100600.91;5117626;27;45182;-65
2022/05/31 10:41:07;;;;;;;;;2.00;2.00;;;;;23.52;27.22;100600.69;5117578;27;45341;-66
2022/05/31 10:43:38;;;;;;;;;1.50;1.50;;;;;23.24;26.37;100601.03;5117773;27;45487;-65
2022/05/31 10:46:12;;;;;;;;;2.75;2.25;;;;;23.29;26.56;100605.09;5057459;27;45400;-65
2022/05/31 10:49:00;;;;;;;;;2.00;2.00;;;;;23.19;26.68;100606.13;4992886;28;45382;-65
2022/05/31 10:51:53;;;;;;;;;2.00;2.00;;;;;23.03;26.43;100603.34;4993246;27;45370;-63
2022/05/31 10:54:34;;;;;;;;;3.00;3.00;;;;;22.79;26.52;100597.84;4993192;28;45445;-65
2022/05/31 10:57:22;;;;;;;;;3.00;3.00;;;;;22.63;26.55;100606.75;4992758;27;46201;-66
2022/05/31 11:00:04;;;;;;;;;1.25;1.00;;;;;22.67;26.96;100608.16;4982289;28;45829;-67
2022/05/31 11:03:04;;;;;;;;;4.00;3.00;;;;;22.70;26.31;100605.09;4992847;27;45419;-65
2022/05/31 11:05:37;;;;;;;;;2.00;2.00;;;;;22.52;26.64;100607.03;4992088;28;45465;-65
2022/05/31 11:14:00;;;;;;;;;2.00;2.00;;;;;22.64;27.49;100603.88;4995806;28;45494;-67
2022/05/31 11:17:01;;;;;;;;;2.25;2.25;;;;;22.78;27.52;100599.69;4994735;28;45551;-65
2022/05/31 11:19:59;;;;;;;;;2.00;2.00;;;;;22.81;26.46;100602.09;4995627;28;45931;-64
2022/05/31 11:22:50;;;;;;;;;1.50;1.00;;;;;22.73;27.62;100602.06;4993907;28;45469;-65
2022/05/31 11:25:22;;;;;;;;;2.75;2.75;;;;;22.77;27.83;100603.41;4996016;28;45271;-62
2022/05/31 11:28:06;;;;;;;;;3.50;3.50;;;;;22.93;27.39;100606.22;4996203;28;45371;-64
2022/05/31 11:31:09;;;;;;;;;2.75;2.75;;;;;23.05;27.29;100611.31;5009084;27;46052;-64
2022/05/31 11:34:05;;;;;;;;;1.50;1.50;;;;;23.16;27.12;100611.84;4998910;27;45342;-63
2022/05/31 11:36:42;;;;;;;;;10.75;10.75;;;;;23.27;25.67;100609.84;5015724;28;45363;-65
2022/05/31 11:39:17;;;;;;;;;2.25;2.25;;;;;22.87;26.06;100604.16;5013911;28;45791;-62
2022/05/31 11:41:53;;;;;;;;;2.00;2.00;;;;;22.75;27.33;100605.44;5015212;28;46255;-66
2022/05/31 11:44:32;;;;;;;;;2.00;2.00;;;;;22.92;26.59;100611.81;5015236;27;45275;-66
2022/05/31 11:47:35;;;;;;;;;2.50;2.50;;;;;22.59;26.37;100611.66;5015232;28;45260;-67
2022/05/31 11:50:21;;;;;;;;;3.00;1.50;;;;;22.62;26.77;100610.47;5014698;27;46887;-64
2022/05/31 11:53:31;;;;;;;;;2.25;2.25;;;;;22.50;27.07;100617.19;5013753;27;45785;-62
2022/05/31 11:56:10;;;;;;;;;1.25;1.25;;;;;22.48;27.85;100605.69;5056639;28;45384;-63
2022/05/31 11:58:48;;;;;;;;;3.00;3.00;;;;;22.50;27.36;100619.91;5017584;28;45225;-66
2022/05/31 12:01:29;;;;;;;;;2.00;2.00;;;;;22.58;27.67;100614.53;5014386;27;45339;-65
2022/05/31 12:04:07;;;;;;;;;2.00;2.00;;;;;22.81;27.39;100620.22;5015259;27;46249;-67
2022/05/31 12:06:35;;;;;;;;;3.00;2.00;;;;;22.71;27.76;100619.50;5000446;27;45209;-66